createdAt,value
2018-09-04T00:01:37.567Z,98970.81
2018-09-04T00:04:07.202Z,98968.05
2018-09-04T00:06:36.497Z,98965.42
2018-09-04T00:09:08.701Z,98973.35
2018-09-04T00:11:43.954Z,98982.09
2018-09-04T00:14:12.912Z,98979.30
2018-09-04T00:16:41.944Z,98982.32
2018-09-04T00:19:10.913Z,98991.11
2018-09-04T00:21:39.949Z,98992.28
2018-09-04T00:24:08.926Z,99000.03
2018-09-04T00:26:38.418Z,98997.00
2018-09-04T00:29:07.471Z,98996.83
2018-09-04T00:31:36.628Z,98993.83
2018-09-04T00:34:05.578Z,99000.91
2018-09-04T00:36:34.534Z,99000.23
2018-09-04T00:39:04.124Z,99003.94
2018-09-04T00:41:33.670Z,99002.23
2018-09-04T00:44:02.572Z,99003.08
2018-09-04T00:46:31.400Z,99005.61
2018-09-04T00:49:00.571Z,99000.23
2018-09-04T00:51:29.597Z,99008.64
2018-09-04T00:53:59.626Z,99010.64
2018-09-04T00:56:28.773Z,99013.86
2018-09-04T00:59:07.482Z,99017.90
2018-09-04T01:01:37.023Z,99013.31
2018-09-04T01:04:06.154Z,99020.53
2018-09-04T01:06:35.248Z,99019.05
2018-09-04T01:09:04.432Z,99024.23
2018-09-04T01:11:33.429Z,99034.00
2018-09-04T01:14:02.423Z,99034.13
2018-09-04T01:16:31.729Z,99037.35
2018-09-04T01:19:00.733Z,99031.47
2018-09-04T01:21:29.681Z,99029.45
2018-09-04T01:23:58.688Z,99018.87
2018-09-04T01:26:27.663Z,99030.64
2018-09-04T01:28:56.741Z,99035.30
2018-09-04T01:31:25.824Z,99039.66
2018-09-04T01:33:55.334Z,99036.75
2018-09-04T01:36:24.343Z,99041.96
2018-09-04T01:38:53.291Z,99042.17
2018-09-04T01:41:22.378Z,99038.16
2018-09-04T01:43:51.559Z,99049.27
2018-09-04T01:46:21.125Z,99039.17
2018-09-04T01:48:51.928Z,99045.06
2018-09-04T01:51:21.045Z,99051.93
2018-09-04T01:53:50.161Z,99037.64
2018-09-04T01:56:19.043Z,99042.86
2018-09-04T01:58:48.536Z,99042.17
2018-09-04T02:01:22.594Z,99046.88
2018-09-04T02:03:51.911Z,99045.71
2018-09-04T02:06:20.810Z,99049.19
2018-09-04T02:08:49.919Z,99041.61
2018-09-04T02:11:18.948Z,99047.36
2018-09-04T02:13:59.737Z,99044.19
2018-09-04T02:16:28.966Z,99041.48
2018-09-04T02:18:58.814Z,99047.51
2018-09-04T02:21:33.220Z,99047.84
2018-09-04T02:24:02.242Z,99050.02
2018-09-04T02:26:32.233Z,99042.98
2018-09-04T02:29:01.181Z,99043.13
2018-09-04T02:31:30.297Z,99041.97
2018-09-04T02:33:59.562Z,99042.98
2018-09-04T02:36:28.683Z,99040.61
2018-09-04T02:38:57.777Z,99042.84
2018-09-04T02:41:27.172Z,99048.86
2018-09-04T02:43:56.159Z,99052.24
2018-09-04T02:46:25.163Z,99045.14
2018-09-04T02:48:57.366Z,99042.80
2018-09-04T02:51:26.299Z,99038.73
2018-09-04T02:53:55.343Z,99041.81
2018-09-04T02:56:24.578Z,99040.77
2018-09-04T02:58:54.872Z,99048.37
2018-09-04T03:01:23.925Z,99052.45
2018-09-04T03:03:52.921Z,99051.91
2018-09-04T03:06:21.816Z,99046.55
2018-09-04T03:08:50.646Z,99050.58
2018-09-04T03:11:19.661Z,99047.08
2018-09-04T03:13:48.931Z,99054.16
2018-09-04T03:16:18.086Z,99053.36
2018-09-04T03:18:47.184Z,99046.33
2018-09-04T03:21:16.181Z,99046.70
2018-09-04T03:23:45.407Z,99051.59
2018-09-04T03:26:14.289Z,99055.13
2018-09-04T03:28:43.341Z,99049.56
2018-09-04T03:31:15.293Z,99046.38
2018-09-04T03:33:44.966Z,99040.83
2018-09-04T03:36:14.028Z,99046.00
2018-09-04T03:38:42.992Z,99044.84
2018-09-04T03:41:11.841Z,99040.96
2018-09-04T03:43:40.799Z,99038.95
2018-09-04T03:46:10.130Z,99038.97
2018-09-04T03:48:39.180Z,99036.61
2018-09-04T03:51:08.334Z,99046.86
2018-09-04T03:53:37.713Z,99051.23
2018-09-04T03:56:06.769Z,99047.36
2018-09-04T03:58:35.856Z,99042.99
2018-09-04T04:01:05.165Z,99052.59
2018-09-04T04:03:34.265Z,99058.48
2018-09-04T04:06:03.337Z,99055.78
2018-09-04T04:08:32.400Z,99052.75
2018-09-04T04:11:01.224Z,99048.86
2018-09-04T04:13:30.121Z,99052.41
2018-09-04T04:15:59.448Z,99053.77
2018-09-04T04:18:28.376Z,99044.33
2018-09-04T04:21:01.340Z,99047.37
2018-09-04T04:23:31.151Z,99051.08
2018-09-04T04:26:01.968Z,99048.19
2018-09-04T04:28:31.100Z,99045.51
2018-09-04T04:31:01.586Z,99048.70
2018-09-04T04:33:31.170Z,99045.52
2018-09-04T04:36:00.318Z,99046.70
2018-09-04T04:38:29.336Z,99041.30
2018-09-04T04:40:58.416Z,99048.71
2018-09-04T04:43:27.382Z,99052.24
2018-09-04T04:45:56.404Z,99053.42
2018-09-04T04:48:25.584Z,99047.48
2018-09-04T04:50:54.570Z,99052.33
2018-09-04T04:53:24.033Z,99059.71
2018-09-04T04:55:53.025Z,99054.63
2018-09-04T04:58:22.111Z,99056.31
2018-09-04T05:00:51.214Z,99055.95
2018-09-04T05:03:20.260Z,99062.55
2018-09-04T05:05:49.299Z,99065.03
2018-09-04T05:08:18.671Z,99059.43
2018-09-04T05:10:47.673Z,99065.92
2018-09-04T05:13:16.650Z,99063.52
2018-09-04T05:15:46.544Z,99060.53
2018-09-04T05:18:17.396Z,99056.59
2018-09-04T05:20:46.664Z,99052.03
2018-09-04T05:23:15.721Z,99051.16
2018-09-04T05:25:44.800Z,99053.30
2018-09-04T05:28:14.199Z,99052.47
2018-09-04T05:30:43.054Z,99048.19
2018-09-04T05:33:19.172Z,99051.91
2018-09-04T05:35:52.035Z,99046.48
2018-09-04T05:38:21.440Z,99046.77
2018-09-04T05:40:50.427Z,99041.52
2018-09-04T05:43:37.667Z,99033.59
2018-09-04T05:46:09.965Z,99030.53
2018-09-04T05:48:39.043Z,99035.59
2018-09-04T05:51:08.098Z,99041.50
2018-09-04T05:53:37.120Z,99034.39
2018-09-04T05:56:06.127Z,99031.55
2018-09-04T05:58:35.104Z,99023.34
2018-09-04T06:01:05.422Z,99022.77
2018-09-04T06:03:35.273Z,99012.49
2018-09-04T06:06:04.296Z,99012.88
2018-09-04T06:08:33.354Z,99005.19
2018-09-04T06:11:02.509Z,99007.94
2018-09-04T06:13:31.597Z,99006.91
2018-09-04T06:16:01.735Z,99009.66
2018-09-04T06:18:30.813Z,99003.64
2018-09-04T06:20:59.722Z,99008.77
2018-09-04T06:23:28.634Z,99006.22
2018-09-04T06:25:57.548Z,99018.13
2018-09-04T06:28:26.452Z,99013.44
2018-09-04T06:30:55.403Z,99019.23
2018-09-04T06:33:24.816Z,99019.75
2018-09-04T06:35:53.653Z,99023.16
2018-09-04T06:38:22.662Z,99024.09
2018-09-04T06:40:51.889Z,99023.77
2018-09-04T06:43:20.801Z,99024.21
2018-09-04T06:45:49.736Z,99012.73
2018-09-04T06:48:19.310Z,99017.31
2018-09-04T06:50:48.304Z,99010.73
2018-09-04T06:53:17.200Z,99007.23
2018-09-04T06:55:46.057Z,99006.12
2018-09-04T06:58:15.405Z,99001.71
2018-09-04T07:00:44.399Z,99001.20
2018-09-04T07:03:13.401Z,99001.08
2018-09-04T07:05:42.571Z,98993.92
2018-09-04T07:08:11.510Z,98995.59
2018-09-04T07:10:40.501Z,98992.12
2018-09-04T07:13:09.590Z,98993.41
2018-09-04T07:15:38.493Z,98994.64
2018-09-04T07:18:08.113Z,98995.50
2018-09-04T07:20:38.092Z,99004.05
2018-09-04T07:23:07.087Z,99000.95
2018-09-04T07:25:35.981Z,99005.09
2018-09-04T07:28:04.934Z,99000.43
2018-09-04T07:30:33.925Z,98997.47
2018-09-04T07:33:03.258Z,98993.95
2018-09-04T07:35:32.116Z,98985.31
2018-09-04T07:38:01.052Z,98995.41
2018-09-04T07:40:30.311Z,98985.40
2018-09-04T07:42:59.271Z,98987.44
2018-09-04T07:45:28.420Z,98981.04
2018-09-04T07:47:57.628Z,98977.34
2018-09-04T07:50:26.510Z,98979.48
2018-09-04T07:52:55.616Z,98980.21
2018-09-04T07:55:24.880Z,98975.23
2018-09-04T07:57:53.724Z,98977.19
2018-09-04T08:00:22.675Z,98974.64
2018-09-04T08:02:51.770Z,98976.45
2018-09-04T08:05:20.735Z,98975.11
2018-09-04T08:07:49.894Z,98973.16
2018-09-04T08:10:18.825Z,98971.80
2018-09-04T08:12:47.784Z,98976.05
2018-09-04T08:15:16.921Z,98979.95
2018-09-04T08:17:46.380Z,98968.95
2018-09-04T08:20:15.169Z,98972.91
2018-09-04T08:22:44.073Z,98968.45
2018-09-04T08:25:13.593Z,98971.75
2018-09-04T08:27:42.514Z,98975.41
2018-09-04T08:30:11.325Z,98974.30
2018-09-04T08:32:40.215Z,98976.56
2018-09-04T08:35:09.113Z,98968.10
2018-09-04T08:37:39.926Z,98967.55
2018-09-04T08:40:09.219Z,98966.90
2018-09-04T08:42:38.593Z,98961.44
2018-09-04T08:45:08.081Z,98961.20
2018-09-04T08:47:36.971Z,98957.78
2018-09-04T08:50:05.856Z,98954.80
2018-09-04T08:52:34.938Z,98951.96
2018-09-04T08:55:04.074Z,98953.00
2018-09-04T08:57:34.205Z,98942.25
2018-09-04T09:00:03.235Z,98943.52
2018-09-04T09:02:32.293Z,98940.50
2018-09-04T09:05:01.180Z,98939.25
2018-09-04T09:07:30.233Z,98936.39
2018-09-04T09:09:59.515Z,98931.14
2018-09-04T09:12:28.405Z,98928.02
2018-09-04T09:14:57.424Z,98918.67
2018-09-04T09:17:26.781Z,98923.30
2018-09-04T09:19:55.805Z,98925.43
2018-09-04T09:22:24.569Z,98928.34
2018-09-04T09:24:54.254Z,98921.31
2018-09-04T09:27:23.194Z,98912.11
2018-09-04T09:29:52.326Z,98912.18
2018-09-04T09:32:22.285Z,98910.45
2018-09-04T09:34:51.233Z,98902.84
2018-09-04T09:37:20.111Z,98902.70
2018-09-04T09:39:49.445Z,98903.27
2018-09-04T09:42:18.286Z,98905.54
2018-09-04T09:44:47.166Z,98909.23
2018-09-04T09:47:16.146Z,98908.06
2018-09-04T09:49:45.962Z,98900.45
2018-09-04T09:52:15.152Z,98901.27
2018-09-04T09:54:44.430Z,98897.25
2018-09-04T09:57:13.267Z,98894.95
2018-09-04T09:59:42.473Z,98886.66
2018-09-04T10:02:16.945Z,98887.22
2018-09-04T10:04:47.056Z,98883.36
2018-09-04T10:07:16.157Z,98886.48
2018-09-04T10:09:45.358Z,98889.81
2018-09-04T10:12:14.154Z,98894.16
2018-09-04T10:14:43.138Z,98892.94
2018-09-04T10:17:12.671Z,98885.45
2018-09-04T10:19:41.610Z,98884.05
2018-09-04T10:22:10.485Z,98875.18
2018-09-04T10:24:39.413Z,98877.38
2018-09-04T10:27:08.333Z,98876.64
2018-09-04T10:29:37.157Z,98871.57
2018-09-04T10:32:06.385Z,98879.31
2018-09-04T10:34:35.197Z,98875.73
2018-09-04T10:37:04.127Z,98879.98
2018-09-04T10:41:45.600Z,98884.21
2018-09-04T10:44:14.508Z,98881.86
2018-09-04T10:46:43.400Z,98874.75
2018-09-04T10:49:12.249Z,98865.81
2018-09-04T10:51:41.240Z,98870.29
2018-09-04T10:54:10.200Z,98869.85
2018-09-04T10:56:39.270Z,98872.96
2018-09-04T10:59:08.386Z,98867.72
2018-09-04T11:01:37.261Z,98876.86
2018-09-04T11:04:06.175Z,98867.09
2018-09-04T11:06:35.001Z,98868.69
2018-09-04T11:09:08.075Z,98869.00
2018-09-04T11:11:36.944Z,98859.52
2018-09-04T11:14:05.928Z,98862.78
2018-09-04T11:16:35.247Z,98861.88
2018-09-04T11:19:04.108Z,98861.26
2018-09-04T11:21:33.041Z,98859.59
2018-09-04T11:24:02.003Z,98857.63
2018-09-04T11:26:30.855Z,98863.52
2018-09-04T11:29:02.972Z,98851.11
2018-09-04T11:31:31.875Z,98851.41
2018-09-04T11:34:00.858Z,98852.31
2018-09-04T11:36:30.260Z,98850.64
2018-09-04T11:38:59.274Z,98841.31
2018-09-04T11:41:28.190Z,98835.64
2018-09-04T11:43:56.953Z,98827.92
2018-09-04T11:46:25.751Z,98827.80
2018-09-04T11:48:54.851Z,98827.33
2018-09-04T11:51:24.161Z,98822.41
2018-09-04T11:53:52.958Z,98815.23
2018-09-04T11:56:21.810Z,98825.16
2018-09-04T11:58:50.615Z,98805.05
2018-09-04T12:01:22.222Z,98808.50
2018-09-04T12:03:51.855Z,98799.34
2018-09-04T12:06:20.677Z,98795.34
2018-09-04T12:08:49.533Z,98788.96
2018-09-04T12:11:18.757Z,98784.87
2018-09-04T12:13:47.705Z,98777.09
2018-09-04T12:16:16.568Z,98777.04
2018-09-04T12:18:45.787Z,98778.25
2018-09-04T12:21:14.687Z,98772.92
2018-09-04T12:23:43.585Z,98765.30
2018-09-04T12:26:13.120Z,98765.67
2018-09-04T12:28:41.937Z,98763.92
2018-09-04T12:31:10.827Z,98761.48
2018-09-04T12:33:40.220Z,98758.23
2018-09-04T12:36:09.061Z,98758.62
2018-09-04T12:38:41.181Z,98759.92
2018-09-04T12:41:15.455Z,98756.58
2018-09-04T12:43:44.971Z,98755.26
2018-09-04T12:46:13.906Z,98748.27
2018-09-04T12:48:48.261Z,98741.83
2018-09-04T12:51:17.141Z,98742.16
2018-09-04T12:53:46.166Z,98735.50
2018-09-04T12:56:15.550Z,98740.87
2018-09-04T12:58:44.452Z,98740.04
2018-09-04T13:01:13.414Z,98734.03
2018-09-04T13:03:42.806Z,98739.00
2018-09-04T13:06:12.854Z,98744.52
2018-09-04T13:08:41.711Z,98741.92
2018-09-04T13:11:10.611Z,98739.48
2018-09-04T13:13:39.582Z,98734.00
2018-09-04T13:16:08.702Z,98725.72
2018-09-04T13:18:37.824Z,98733.22
2018-09-04T13:21:06.596Z,98721.30
2018-09-04T13:23:36.312Z,98726.80
2018-09-04T13:26:06.109Z,98722.41
2018-09-04T13:28:35.506Z,98727.13
2018-09-04T13:31:04.612Z,98736.00
2018-09-04T13:33:33.554Z,98736.58
2018-09-04T13:36:02.416Z,98741.49
2018-09-04T13:38:31.231Z,98736.61
2018-09-04T13:41:05.362Z,98739.55
2018-09-04T13:43:34.296Z,98743.95
2018-09-04T13:46:03.237Z,98737.47
2018-09-04T13:48:33.647Z,98735.73
2018-09-04T13:51:02.580Z,98730.31
2018-09-04T13:53:31.660Z,98732.09
2018-09-04T13:56:00.727Z,98739.88
2018-09-04T13:58:29.733Z,98732.03
2018-09-04T14:00:58.614Z,98735.91
2018-09-04T14:03:27.480Z,98734.19
2018-09-04T14:05:56.280Z,98734.88
2018-09-04T14:08:25.329Z,98726.28
2018-09-04T14:10:54.675Z,98729.28
2018-09-04T14:13:23.611Z,98737.50
2018-09-04T14:15:54.207Z,98732.19
2018-09-04T14:18:23.058Z,98727.76
2018-09-04T14:20:51.935Z,98729.44
2018-09-04T14:23:21.577Z,98725.96
2018-09-04T14:25:50.452Z,98721.58
2018-09-04T14:28:40.974Z,98719.23
2018-09-04T14:30:48.428Z,98722.58
2018-09-04T14:33:17.335Z,98725.07
2018-09-04T14:35:46.326Z,98723.88
2018-09-04T14:38:15.697Z,98729.70
2018-09-04T14:40:44.663Z,98732.20
2018-09-04T14:43:13.688Z,98740.08
2018-09-04T14:45:42.661Z,98724.42
2018-09-04T14:48:11.762Z,98725.26
2018-09-04T14:50:40.861Z,98724.86
2018-09-04T14:53:10.356Z,98725.16
2018-09-04T14:55:39.309Z,98723.37
2018-09-04T14:58:08.216Z,98723.07
2018-09-04T15:00:37.263Z,98723.56
2018-09-04T15:03:06.305Z,98730.30
2018-09-04T15:05:35.382Z,98732.48
2018-09-04T15:08:04.825Z,98731.78
2018-09-04T15:10:34.996Z,98734.06
2018-09-04T15:13:04.133Z,98731.85
2018-09-04T15:15:33.795Z,98735.77
2018-09-04T15:18:02.928Z,98735.36
2018-09-04T15:20:31.954Z,98729.78
2018-09-04T15:23:01.213Z,98729.86
2018-09-04T15:25:30.150Z,98725.59
2018-09-04T15:28:01.245Z,98721.70
2018-09-04T15:30:30.171Z,98719.08
2018-09-04T15:32:59.082Z,98722.95
2018-09-04T15:35:28.234Z,98719.87
2018-09-04T15:37:57.322Z,98721.47
2018-09-04T15:40:40.718Z,98725.53
2018-09-04T15:43:17.065Z,98734.87
2018-09-04T15:45:52.122Z,98732.34
2018-09-04T15:48:38.340Z,98741.38
2018-09-04T15:51:20.924Z,98731.30
2018-09-04T15:53:50.116Z,98736.20
2018-09-04T15:56:19.365Z,98742.92
2018-09-04T15:58:48.435Z,98736.75
2018-09-04T16:01:17.472Z,98742.27
2018-09-04T16:03:47.024Z,98737.35
2018-09-04T16:06:16.032Z,98749.17
2018-09-04T16:08:50.024Z,98762.67
2018-09-04T16:11:19.201Z,98769.81
2018-09-04T16:13:51.401Z,98776.80
2018-09-04T16:16:21.865Z,98780.48
2018-09-04T16:18:54.212Z,98777.09
2018-09-04T16:21:29.809Z,98788.81
2018-09-04T16:24:00.965Z,98782.12
2018-09-04T16:26:30.394Z,98780.98
2018-09-04T16:28:59.413Z,98785.67
2018-09-04T16:31:28.798Z,98792.98
2018-09-04T16:33:57.772Z,98795.83
2018-09-04T16:36:26.799Z,98791.13
2018-09-04T16:39:04.512Z,98794.24
2018-09-04T16:41:33.493Z,98799.67
2018-09-04T16:44:05.023Z,98792.17
2018-09-04T16:46:37.104Z,98790.19
2018-09-04T16:49:15.377Z,98782.20
2018-09-04T16:51:44.364Z,98793.15
2018-09-04T16:54:13.335Z,98802.34
2018-09-04T16:56:42.331Z,98800.91
2018-09-04T16:59:11.142Z,98810.02
2018-09-04T17:01:41.313Z,98801.88
2018-09-04T17:04:11.241Z,98796.11
2018-09-04T17:06:40.398Z,98782.89
2018-09-04T17:09:10.110Z,98781.52
2018-09-04T17:11:39.307Z,98786.28
2018-09-04T17:14:08.731Z,98797.58
2018-09-04T17:16:37.738Z,98807.06
2018-09-04T17:19:07.087Z,98814.56
2018-09-04T17:21:36.445Z,98829.63
2018-09-04T17:24:05.778Z,98825.83
2018-09-04T17:26:34.940Z,98832.66
2018-09-04T17:29:03.860Z,98845.84
2018-09-04T17:31:33.204Z,98843.83
2018-09-04T17:34:02.235Z,98857.39
2018-09-04T17:36:31.902Z,98868.70
2018-09-04T17:39:01.182Z,98866.97
2018-09-04T17:41:31.571Z,98865.09
2018-09-04T17:44:00.636Z,98869.34
2018-09-04T17:46:29.746Z,98871.13
2018-09-04T17:48:58.894Z,98868.88
2018-09-04T17:51:28.118Z,98870.61
2018-09-04T17:54:05.849Z,98873.50
2018-09-04T17:56:35.615Z,98876.53
2018-09-04T17:59:04.524Z,98873.75
2018-09-04T18:01:33.599Z,98876.67
2018-09-04T18:04:03.564Z,98878.38
2018-09-04T18:06:33.676Z,98873.63
2018-09-04T18:09:02.830Z,98871.29
2018-09-04T18:11:33.230Z,98868.27
2018-09-04T18:14:02.622Z,98874.25
2018-09-04T18:16:31.638Z,98870.94
2018-09-04T18:19:00.781Z,98872.91
2018-09-04T18:21:29.953Z,98876.53
2018-09-04T18:23:59.018Z,98875.52
2018-09-04T18:26:28.303Z,98873.85
2018-09-04T18:28:57.269Z,98874.95
2018-09-04T18:31:26.478Z,98879.01
2018-09-04T18:33:55.861Z,98876.61
2018-09-04T18:36:24.810Z,98882.66
2018-09-04T18:38:53.961Z,98880.59
2018-09-04T18:41:22.996Z,98888.08
2018-09-04T18:43:52.172Z,98895.98
2018-09-04T18:46:23.144Z,98898.11
2018-09-04T18:48:54.890Z,98898.05
2018-09-04T18:51:24.615Z,98897.01
2018-09-04T18:53:53.523Z,98903.14
2018-09-04T18:56:22.397Z,98903.11
2018-09-04T18:58:52.113Z,98913.95
2018-09-04T19:01:21.060Z,98922.45
2018-09-04T19:03:50.145Z,98925.11
2018-09-04T19:06:19.242Z,98917.34
2018-09-04T19:08:48.334Z,98917.57
2018-09-04T19:11:17.257Z,98919.52
2018-09-04T19:13:46.648Z,98926.45
2018-09-04T19:16:15.644Z,98921.00
2018-09-04T19:18:44.746Z,98913.09
2018-09-04T19:21:14.139Z,98909.19
2018-09-04T19:23:43.020Z,98912.66
2018-09-04T19:26:11.941Z,98924.16
2018-09-04T19:28:40.884Z,98912.91
2018-09-04T19:31:09.986Z,98909.05
2018-09-04T19:33:39.047Z,98903.00
2018-09-04T19:36:08.484Z,98900.62
2018-09-04T19:38:37.527Z,98905.27
2018-09-04T19:41:06.520Z,98898.25
2018-09-04T19:43:35.662Z,98888.44
2018-09-04T19:46:05.133Z,98889.78
2018-09-04T19:48:34.290Z,98891.84
2018-09-04T19:51:03.476Z,98900.48
2018-09-04T19:53:32.338Z,98904.84
2018-09-04T19:56:01.357Z,98904.15
2018-09-04T19:58:30.238Z,98908.71
2018-09-04T20:00:59.329Z,98903.70
2018-09-04T20:03:28.398Z,98909.41
2018-09-04T20:05:57.372Z,98911.67
2018-09-04T20:08:26.394Z,98912.75
2018-09-04T20:10:55.418Z,98908.51
2018-09-04T20:13:24.492Z,98919.02
2018-09-04T20:15:53.471Z,98915.54
2018-09-04T20:18:22.413Z,98911.63
2018-09-04T20:20:52.157Z,98907.70
2018-09-04T20:23:20.967Z,98908.90
2018-09-04T20:25:49.921Z,98910.32
2018-09-04T20:28:18.945Z,98909.59
2018-09-04T20:30:48.707Z,98904.66
2018-09-04T20:33:17.737Z,98909.81
2018-09-04T20:35:46.780Z,98897.64
2018-09-04T20:38:15.831Z,98899.13
2018-09-04T20:40:44.746Z,98904.34
2018-09-04T20:43:13.789Z,98902.06
2018-09-04T20:45:42.792Z,98903.26
2018-09-04T20:48:11.721Z,98901.88
2018-09-04T20:50:40.719Z,98910.75
2018-09-04T20:53:09.729Z,98908.28
2018-09-04T20:55:38.721Z,98907.08
2018-09-04T20:58:19.154Z,98911.22
2018-09-04T21:01:00.220Z,98914.56
2018-09-04T21:03:40.127Z,98923.86
2018-09-04T21:06:19.958Z,98929.55
2018-09-04T21:09:16.441Z,98922.52
2018-09-04T21:11:45.499Z,98917.70
2018-09-04T21:14:14.584Z,98922.66
2018-09-04T21:16:43.580Z,98925.02
2018-09-04T21:19:12.459Z,98923.45
2018-09-04T21:21:41.407Z,98920.36
2018-09-04T21:24:10.725Z,98924.77
2018-09-04T21:26:39.699Z,98916.35
2018-09-04T21:29:08.843Z,98918.69
2018-09-04T21:31:38.134Z,98915.16
2018-09-04T21:34:07.089Z,98917.94
2018-09-04T21:36:36.158Z,98915.90
2018-09-04T21:39:07.554Z,98918.23
2018-09-04T21:41:36.597Z,98921.95
2018-09-04T21:44:05.901Z,98925.39
2018-09-04T21:46:35.146Z,98935.84
2018-09-04T21:49:04.148Z,98936.05
2018-09-04T21:51:33.119Z,98936.96
2018-09-04T21:54:02.249Z,98939.68
2018-09-04T21:56:31.159Z,98941.89
2018-09-04T21:58:59.933Z,98944.73
2018-09-04T22:01:29.009Z,98944.90
2018-09-04T22:03:57.875Z,98947.92
2018-09-04T22:06:26.830Z,98941.39
2018-09-04T22:08:55.893Z,98941.70
2018-09-04T22:11:24.839Z,98945.08
2018-09-04T22:13:53.824Z,98941.04
2018-09-04T22:16:23.029Z,98945.42
2018-09-04T22:18:52.062Z,98944.73
2018-09-04T22:21:21.149Z,98944.08
2018-09-04T22:23:50.537Z,98944.72
2018-09-04T22:26:19.407Z,98942.20
2018-09-04T22:28:48.428Z,98939.02
2018-09-04T22:31:17.588Z,98944.05
2018-09-04T22:33:46.585Z,98937.67
2018-09-04T22:36:15.727Z,98944.39
2018-09-04T22:38:44.736Z,98944.93
2018-09-04T22:41:13.893Z,98944.07
2018-09-04T22:43:42.889Z,98942.05
2018-09-04T22:46:11.786Z,98943.52
2018-09-04T22:48:40.557Z,98946.19
2018-09-04T22:51:15.259Z,98943.31
2018-09-04T22:53:44.809Z,98945.39
2018-09-04T22:56:15.087Z,98941.89
2018-09-04T22:58:44.043Z,98944.53
2018-09-04T23:01:13.178Z,98936.64
2018-09-04T23:03:42.185Z,98940.29
2018-09-04T23:06:10.992Z,98938.38
2018-09-04T23:08:40.016Z,98942.28
2018-09-04T23:11:09.342Z,98936.65
2018-09-04T23:13:38.357Z,98936.17
2018-09-04T23:16:07.443Z,98935.88
2018-09-04T23:18:36.701Z,98939.94
2018-09-04T23:21:05.673Z,98933.50
2018-09-04T23:23:34.705Z,98931.70
2018-09-04T23:26:04.054Z,98938.61
2018-09-04T23:28:33.026Z,98934.27
2018-09-04T23:31:03.367Z,98938.28
2018-09-04T23:33:34.543Z,98928.88
2018-09-04T23:36:03.568Z,98924.00
2018-09-04T23:38:32.643Z,98922.09
2018-09-04T23:41:02.020Z,98921.71
2018-09-04T23:43:31.050Z,98923.06
2018-09-04T23:46:00.011Z,98927.07
2018-09-04T23:48:28.860Z,98927.58
2018-09-04T23:50:58.762Z,98931.91
2018-09-04T23:53:27.708Z,98924.70
2018-09-04T23:55:56.603Z,98930.48
2018-09-04T23:58:26.056Z,98927.28
